createdAt,value
2023-02-28T00:00:25.186Z,101461.69
2023-02-28T00:05:50.969Z,101468.34
2023-02-28T00:08:18.431Z,101459.91
2023-02-28T00:10:45.989Z,101456.69
2023-02-28T00:13:15.010Z,101462.56
2023-02-28T00:18:41.390Z,101465.69
2023-02-28T00:21:09.312Z,101463.09
2023-02-28T00:23:36.973Z,101461.22
2023-02-28T00:26:04.850Z,101471.84
2023-02-28T00:31:16.449Z,101468.78
2023-02-28T00:33:43.943Z,101477.56
2023-02-28T00:36:12.870Z,101476.34
2023-02-28T00:38:41.273Z,101466.16
2023-02-28T00:44:07.046Z,101467.53
2023-02-28T00:46:36.114Z,101463.69
2023-02-28T00:49:03.602Z,101463.41
2023-02-28T00:51:31.273Z,101473.25
2023-02-28T00:53:58.803Z,101470.38
2023-02-28T00:59:15.028Z,101473.56
2023-02-28T01:01:44.290Z,101474.25
2023-02-28T01:04:12.084Z,101474.00
2023-02-28T01:06:39.572Z,101469.72
2023-02-28T01:12:09.045Z,101471.19
2023-02-28T01:14:36.861Z,101472.88
2023-02-28T01:17:05.686Z,101472.56
2023-02-28T01:19:33.119Z,101464.31
2023-02-28T01:22:02.855Z,101470.59
2023-02-28T01:24:30.426Z,101462.25
2023-02-28T01:26:57.893Z,101472.41
2023-02-28T01:29:25.335Z,101466.19
2023-02-28T01:31:54.063Z,101462.97
2023-02-28T01:34:22.848Z,101469.66
2023-02-28T01:39:47.467Z,101467.44
2023-02-28T01:45:21.505Z,101465.41
2023-02-28T01:47:50.014Z,101462.22
2023-02-28T01:50:21.135Z,101465.22
2023-02-28T01:53:04.613Z,101465.16
2023-02-28T01:55:32.961Z,101461.34
2023-02-28T02:01:03.907Z,101462.19
2023-02-28T02:03:32.000Z,101467.34
2023-02-28T02:06:01.428Z,101469.72
2023-02-28T02:08:30.400Z,101469.13
2023-02-28T02:10:59.825Z,101467.88
2023-02-28T02:13:36.505Z,101471.25
2023-02-28T02:16:13.657Z,101472.63
2023-02-28T02:18:45.356Z,101468.28
2023-02-28T02:21:51.887Z,101464.25
2023-02-28T02:24:31.506Z,101468.06
2023-02-28T02:27:19.283Z,101467.75
2023-02-28T02:33:33.087Z,101466.09
2023-02-28T02:36:06.046Z,101459.53
2023-02-28T02:38:35.651Z,101462.34
2023-02-28T02:41:08.279Z,101460.13
2023-02-28T02:43:38.843Z,101458.34
2023-02-28T02:46:08.291Z,101453.09
2023-02-28T02:48:38.452Z,101462.06
2023-02-28T02:51:12.856Z,101456.94
2023-02-28T02:56:47.234Z,101458.66
2023-02-28T02:59:16.034Z,101458.00
2023-02-28T03:01:43.664Z,101457.16
2023-02-28T03:04:13.897Z,101463.97
2023-02-28T03:06:43.496Z,101473.13
2023-02-28T03:09:11.006Z,101462.50
2023-02-28T03:11:41.684Z,101472.13
2023-02-28T03:14:28.094Z,101466.94
2023-02-28T03:20:08.342Z,101470.69
2023-02-28T03:25:35.338Z,101466.69
2023-02-28T03:28:06.936Z,101464.50
2023-02-28T03:30:41.687Z,101471.34
2023-02-28T03:33:13.555Z,101465.41
2023-02-28T03:35:42.658Z,101467.72
2023-02-28T03:41:16.264Z,101466.28
2023-02-28T03:43:46.602Z,101462.88
2023-02-28T03:46:17.704Z,101472.03
2023-02-28T03:48:47.352Z,101460.44
2023-02-28T03:51:18.174Z,101462.25
2023-02-28T03:53:48.495Z,101456.06
2023-02-28T03:56:19.353Z,101458.00
2023-02-28T03:58:50.094Z,101463.50
2023-02-28T04:01:19.980Z,101463.59
2023-02-28T04:03:47.466Z,101470.28
2023-02-28T04:06:17.821Z,101471.13
2023-02-28T04:11:47.359Z,101460.97
2023-02-28T04:14:15.226Z,101462.72
2023-02-28T04:16:43.922Z,101457.91
2023-02-28T04:19:13.203Z,101461.91
2023-02-28T04:21:42.553Z,101470.94
2023-02-28T04:24:42.529Z,101462.53
2023-02-28T04:27:11.611Z,101457.00
2023-02-28T04:29:39.099Z,101460.25
2023-02-28T04:35:08.943Z,101460.38
2023-02-28T04:37:37.733Z,101470.13
2023-02-28T04:40:05.922Z,101458.44
2023-02-28T04:42:36.661Z,101455.16
2023-02-28T04:45:04.553Z,101457.84
2023-02-28T04:47:32.120Z,101457.94
2023-02-28T04:49:59.665Z,101460.72
2023-02-28T04:52:29.093Z,101460.13
2023-02-28T04:54:56.513Z,101459.88
2023-02-28T04:57:23.980Z,101467.88
2023-02-28T05:02:41.274Z,101469.63
2023-02-28T05:05:08.956Z,101470.44
2023-02-28T05:07:36.423Z,101464.53
2023-02-28T05:10:04.688Z,101466.09
2023-02-28T05:15:22.027Z,101475.69
2023-02-28T05:17:50.842Z,101482.16
2023-02-28T05:20:18.748Z,101470.34
2023-02-28T05:22:46.260Z,101473.13
2023-02-28T05:25:15.871Z,101469.84
2023-02-28T05:27:43.371Z,101484.59
2023-02-28T05:30:12.149Z,101486.25
2023-02-28T05:32:40.110Z,101481.19
2023-02-28T05:35:09.694Z,101479.75
2023-02-28T05:37:37.496Z,101481.34
2023-02-28T05:42:53.958Z,101484.31
2023-02-28T05:45:21.382Z,101482.84
2023-02-28T05:47:48.839Z,101482.03
2023-02-28T05:50:17.858Z,101492.03
2023-02-28T05:52:45.307Z,101499.16
2023-02-28T05:58:14.902Z,101487.31
2023-02-28T06:00:42.484Z,101485.81
2023-02-28T06:03:09.937Z,101489.81
2023-02-28T06:08:37.313Z,101486.69
2023-02-28T06:11:05.035Z,101493.22
2023-02-28T06:13:32.532Z,101503.09
2023-02-28T06:16:02.351Z,101489.16
2023-02-28T06:21:29.532Z,101494.13
2023-02-28T06:23:59.146Z,101487.41
2023-02-28T06:26:27.917Z,101488.78
2023-02-28T06:28:55.574Z,101491.31
2023-02-28T06:31:24.023Z,101497.38
2023-02-28T06:33:51.911Z,101503.94
2023-02-28T06:36:19.848Z,101500.81
2023-02-28T06:39:11.262Z,101504.94
2023-02-28T06:41:54.299Z,101499.50
2023-02-28T06:44:23.507Z,101506.72
2023-02-28T06:46:51.221Z,101511.16
2023-02-28T06:49:19.973Z,101500.78
2023-02-28T06:51:47.461Z,101519.66
2023-02-28T06:54:15.370Z,101512.31
2023-02-28T06:56:44.402Z,101517.56
2023-02-28T06:59:11.905Z,101511.81
2023-02-28T07:01:39.799Z,101518.19
2023-02-28T07:04:07.570Z,101519.94
2023-02-28T07:06:35.174Z,101519.88
2023-02-28T07:09:02.646Z,101517.41
2023-02-28T07:11:30.468Z,101534.75
2023-02-28T07:16:56.767Z,101536.78
2023-02-28T07:19:24.178Z,101536.09
2023-02-28T07:21:51.647Z,101535.66
2023-02-28T07:24:19.206Z,101543.19
2023-02-28T07:29:34.972Z,101551.06
2023-02-28T07:32:03.829Z,101553.91
2023-02-28T07:34:31.343Z,101563.53
2023-02-28T07:36:58.901Z,101554.66
2023-02-28T07:42:14.927Z,101552.75
2023-02-28T07:44:43.385Z,101542.84
2023-02-28T07:47:12.608Z,101540.00
2023-02-28T07:49:40.304Z,101532.38
2023-02-28T07:52:08.855Z,101528.69
2023-02-28T07:54:37.087Z,101529.31
2023-02-28T07:59:46.073Z,101532.25
2023-02-28T08:02:15.641Z,101533.94
2023-02-28T08:04:43.506Z,101529.00
2023-02-28T08:07:13.973Z,101534.41
2023-02-28T08:09:41.445Z,101532.16
2023-02-28T08:12:09.049Z,101536.28
2023-02-28T08:14:37.989Z,101533.09
2023-02-28T08:17:05.986Z,101524.47
2023-02-28T08:19:34.773Z,101525.22
2023-02-28T08:22:02.260Z,101526.41
2023-02-28T08:24:29.952Z,101523.59
2023-02-28T08:26:57.575Z,101530.03
2023-02-28T08:29:25.175Z,101524.84
2023-02-28T08:31:52.663Z,101527.06
2023-02-28T08:34:20.191Z,101526.31
2023-02-28T08:36:49.005Z,101533.78
2023-02-28T08:39:16.442Z,101542.63
2023-02-28T08:41:44.949Z,101531.97
2023-02-28T08:44:12.386Z,101539.13
2023-02-28T08:46:40.122Z,101526.88
2023-02-28T08:49:07.977Z,101527.66
2023-02-28T08:51:35.468Z,101529.38
2023-02-28T08:54:04.286Z,101525.44
2023-02-28T08:56:31.777Z,101530.19
2023-02-28T08:58:59.366Z,101518.81
2023-02-28T09:01:29.599Z,101530.16
2023-02-28T09:03:58.393Z,101526.84
2023-02-28T09:06:28.374Z,101517.44
2023-02-28T09:08:59.243Z,101527.59
2023-02-28T09:11:28.024Z,101533.94
2023-02-28T09:13:56.398Z,101531.22
2023-02-28T09:16:24.094Z,101524.06
2023-02-28T09:18:51.572Z,101530.09
2023-02-28T09:21:20.263Z,101518.91
2023-02-28T09:23:49.761Z,101522.88
2023-02-28T09:26:18.346Z,101517.34
2023-02-28T09:28:47.238Z,101516.03
2023-02-28T09:31:16.284Z,101515.59
2023-02-28T09:33:43.878Z,101522.78
2023-02-28T09:36:11.354Z,101524.25
2023-02-28T09:38:38.908Z,101526.19
2023-02-28T09:41:13.739Z,101529.19
2023-02-28T09:50:19.989Z,101540.41
2023-02-28T09:52:48.906Z,101530.97
2023-02-28T09:55:23.429Z,101541.03
2023-02-28T09:57:52.935Z,101525.47
2023-02-28T10:00:23.389Z,101529.59
2023-02-28T10:03:00.153Z,101529.50
2023-02-28T10:05:32.455Z,101526.06
2023-02-28T10:08:05.982Z,101532.69
2023-02-28T10:10:39.284Z,101532.50
2023-02-28T10:13:09.415Z,101532.53
2023-02-28T10:15:37.264Z,101534.75
2023-02-28T10:18:09.129Z,101532.09
2023-02-28T10:20:40.953Z,101531.34
2023-02-28T10:23:32.352Z,101526.38
2023-02-28T10:26:01.926Z,101522.06
2023-02-28T10:31:32.092Z,101517.72
2023-02-28T10:33:59.550Z,101514.09
2023-02-28T10:36:29.339Z,101519.19
2023-02-28T10:38:57.033Z,101518.66
2023-02-28T10:42:29.848Z,101523.97
2023-02-28T10:45:08.476Z,101511.06
2023-02-28T10:47:37.460Z,101512.66
2023-02-28T10:50:05.715Z,101511.16
2023-02-28T10:55:32.625Z,101509.38
2023-02-28T10:58:01.407Z,101516.66
2023-02-28T11:03:34.502Z,101510.38
2023-02-28T11:06:07.496Z,101489.25
2023-02-28T11:08:35.296Z,101490.53
2023-02-28T11:11:06.785Z,101490.69
2023-02-28T11:13:38.748Z,101491.66
2023-02-28T11:16:08.766Z,101485.25
2023-02-28T11:18:41.285Z,101481.13
2023-02-28T11:21:09.702Z,101482.06
2023-02-28T11:23:39.079Z,101487.19
2023-02-28T11:26:10.454Z,101480.03
2023-02-28T11:28:41.076Z,101482.34
2023-02-28T11:31:20.326Z,101485.50
2023-02-28T11:33:51.094Z,101484.34
2023-02-28T11:36:21.624Z,101480.69
2023-02-28T11:38:50.303Z,101484.19
2023-02-28T11:41:27.818Z,101478.66
2023-02-28T11:44:06.198Z,101476.41
2023-02-28T11:46:37.934Z,101477.34
2023-02-28T11:49:18.845Z,101464.47
2023-02-28T11:51:52.909Z,101458.31
2023-02-28T11:54:37.862Z,101471.09
2023-02-28T11:57:15.719Z,101476.56
2023-02-28T11:59:57.491Z,101455.72
2023-02-28T12:02:28.814Z,101447.47
2023-02-28T12:05:09.092Z,101449.31
2023-02-28T12:07:49.676Z,101449.22
2023-02-28T12:10:24.676Z,101446.03
2023-02-28T12:13:01.620Z,101445.09
2023-02-28T12:15:58.742Z,101434.22
2023-02-28T12:18:39.534Z,101434.19
2023-02-28T12:21:13.344Z,101437.00
2023-02-28T12:24:02.333Z,101438.78
2023-02-28T12:26:36.689Z,101425.50
2023-02-28T12:29:11.388Z,101428.38
2023-02-28T12:31:44.204Z,101423.72
2023-02-28T12:34:15.423Z,101420.19
2023-02-28T12:36:43.741Z,101411.78
2023-02-28T12:39:15.218Z,101423.34
2023-02-28T12:41:44.917Z,101417.00
2023-02-28T12:44:15.609Z,101421.31
2023-02-28T12:46:47.673Z,101413.41
2023-02-28T12:49:18.878Z,101409.19
2023-02-28T12:51:47.866Z,101404.78
2023-02-28T12:54:22.937Z,101403.47
2023-02-28T12:56:56.214Z,101411.44
2023-02-28T12:59:27.832Z,101400.59
2023-02-28T13:02:17.233Z,101392.13
2023-02-28T13:04:51.233Z,101396.63
2023-02-28T13:07:49.001Z,101388.72
2023-02-28T13:10:19.563Z,101390.19
2023-02-28T13:12:51.002Z,101389.16
2023-02-28T13:15:22.270Z,101385.16
2023-02-28T13:17:52.913Z,101386.56
2023-02-28T13:20:22.487Z,101383.84
2023-02-28T13:22:51.511Z,101385.84
2023-02-28T13:25:52.949Z,101376.59
2023-02-28T13:29:09.311Z,101382.78
2023-02-28T13:32:14.539Z,101387.28
2023-02-28T13:34:49.306Z,101373.66
2023-02-28T13:37:35.411Z,101375.47
2023-02-28T13:40:29.506Z,101375.00
2023-02-28T13:42:56.951Z,101374.44
2023-02-28T13:45:27.496Z,101370.81
2023-02-28T13:47:57.254Z,101370.91
2023-02-28T13:50:30.689Z,101376.22
2023-02-28T13:53:08.096Z,101380.44
2023-02-28T13:55:37.078Z,101378.75
2023-02-28T13:58:27.932Z,101375.25
2023-02-28T14:01:06.252Z,101375.03
2023-02-28T14:03:41.446Z,101379.00
2023-02-28T14:06:18.919Z,101366.91
2023-02-28T14:08:54.999Z,101361.78
2023-02-28T14:11:29.425Z,101366.59
2023-02-28T14:13:56.886Z,101370.31
2023-02-28T14:16:27.463Z,101363.94
2023-02-28T14:18:58.624Z,101351.31
2023-02-28T14:21:29.954Z,101357.09
2023-02-28T14:24:33.004Z,101360.53
2023-02-28T14:27:10.072Z,101353.53
2023-02-28T14:29:52.195Z,101350.50
2023-02-28T14:32:30.012Z,101347.75
2023-02-28T14:35:04.077Z,101341.28
2023-02-28T14:37:35.833Z,101343.44
2023-02-28T14:40:05.462Z,101339.44
2023-02-28T14:42:35.105Z,101332.00
2023-02-28T14:45:03.010Z,101330.03
2023-02-28T14:47:32.791Z,101335.66
2023-02-28T14:50:00.482Z,101324.34
2023-02-28T14:52:30.384Z,101328.69
2023-02-28T14:55:01.237Z,101332.63
2023-02-28T14:57:30.472Z,101340.22
2023-02-28T15:00:11.589Z,101324.75
2023-02-28T15:02:40.617Z,101337.81
2023-02-28T15:05:28.370Z,101338.94
2023-02-28T15:08:08.180Z,101334.84
2023-02-28T15:10:37.052Z,101341.91
2023-02-28T15:13:07.608Z,101345.53
2023-02-28T15:15:51.605Z,101346.34
2023-02-28T15:18:33.322Z,101349.72
2023-02-28T15:21:04.700Z,101348.06
2023-02-28T15:23:32.509Z,101349.25
2023-02-28T15:26:01.809Z,101342.06
2023-02-28T15:28:29.840Z,101337.13
2023-02-28T15:31:00.639Z,101345.53
2023-02-28T15:33:29.302Z,101355.06
2023-02-28T15:36:08.970Z,101354.75
2023-02-28T15:38:37.809Z,101354.47
2023-02-28T15:41:09.060Z,101352.34
2023-02-28T15:43:37.766Z,101350.09
2023-02-28T15:46:07.250Z,101352.94
2023-02-28T15:48:37.837Z,101349.06
2023-02-28T15:51:08.502Z,101364.72
2023-02-28T15:53:38.727Z,101358.91
2023-02-28T15:56:23.432Z,101361.53
2023-02-28T15:58:50.892Z,101365.13
2023-02-28T16:01:22.968Z,101364.09
2023-02-28T16:03:52.403Z,101361.25
2023-02-28T16:06:37.523Z,101363.53
2023-02-28T16:09:06.107Z,101369.88
2023-02-28T16:11:36.885Z,101368.38
2023-02-28T16:14:04.648Z,101372.81
2023-02-28T16:16:33.128Z,101368.41
2023-02-28T16:19:00.584Z,101372.84
2023-02-28T16:21:28.733Z,101370.81
2023-02-28T16:23:56.410Z,101373.34
2023-02-28T16:26:25.202Z,101362.09
2023-02-28T16:28:54.313Z,101365.25
2023-02-28T16:31:22.191Z,101361.63
2023-02-28T16:33:49.732Z,101360.69
2023-02-28T16:36:18.970Z,101363.66
2023-02-28T16:38:46.612Z,101363.78
2023-02-28T16:41:20.851Z,101369.47
2023-02-28T16:43:50.967Z,101360.72
2023-02-28T16:49:17.951Z,101362.59
2023-02-28T16:51:45.428Z,101374.75
2023-02-28T16:54:12.877Z,101373.81
2023-02-28T16:56:41.898Z,101377.53
2023-02-28T17:01:58.830Z,101379.16
2023-02-28T17:04:28.450Z,101387.84
2023-02-28T17:06:55.898Z,101383.09
2023-02-28T17:09:36.536Z,101385.00
2023-02-28T17:12:19.287Z,101358.16
2023-02-28T17:14:46.830Z,101379.47
2023-02-28T17:20:15.776Z,101388.59
2023-02-28T17:22:43.317Z,101392.59
2023-02-28T17:25:11.923Z,101390.28
2023-02-28T17:27:39.676Z,101397.66
2023-02-28T17:33:05.675Z,101403.13
2023-02-28T17:35:34.712Z,101401.00
2023-02-28T17:38:02.177Z,101402.72
2023-02-28T17:40:29.773Z,101405.88
2023-02-28T17:45:45.636Z,101416.16
2023-02-28T17:48:13.241Z,101412.63
2023-02-28T17:50:42.427Z,101415.81
2023-02-28T17:53:09.941Z,101421.97
2023-02-28T17:58:39.636Z,101425.81
2023-02-28T18:01:07.133Z,101429.56
2023-02-28T18:03:34.553Z,101436.22
2023-02-28T18:06:04.264Z,101436.66
2023-02-28T18:11:21.271Z,101433.59
2023-02-28T18:13:50.756Z,101443.75
2023-02-28T18:16:18.953Z,101445.75
2023-02-28T18:18:46.929Z,101439.44
2023-02-28T18:24:14.446Z,101449.47
2023-02-28T18:26:42.936Z,101438.94
2023-02-28T18:29:17.288Z,101431.59
2023-02-28T18:31:44.834Z,101446.97
2023-02-28T18:37:00.609Z,101441.03
2023-02-28T18:39:29.374Z,101446.41
2023-02-28T18:41:56.821Z,101435.59
2023-02-28T18:44:24.236Z,101430.81
2023-02-28T18:49:50.646Z,101432.03
2023-02-28T18:52:18.180Z,101431.25
2023-02-28T18:54:46.949Z,101430.56
2023-02-28T18:57:14.388Z,101439.69
2023-02-28T19:02:19.141Z,101430.97
2023-02-28T19:04:46.583Z,101434.78
2023-02-28T19:07:14.649Z,101432.59
2023-02-28T19:09:42.092Z,101434.28
2023-02-28T19:12:10.924Z,101431.31
2023-02-28T19:14:38.371Z,101435.44
2023-02-28T19:19:56.634Z,101434.16
2023-02-28T19:22:24.341Z,101440.03
2023-02-28T19:24:52.010Z,101444.91
2023-02-28T19:30:15.738Z,101435.28
2023-02-28T19:32:43.718Z,101442.31
2023-02-28T19:35:11.179Z,101453.00
2023-02-28T19:37:39.771Z,101451.13
2023-02-28T19:40:08.652Z,101444.94
2023-02-28T19:42:36.535Z,101441.78
2023-02-28T19:45:05.393Z,101447.50
2023-02-28T19:47:34.269Z,101446.09
2023-02-28T19:50:01.717Z,101444.13
2023-02-28T19:52:29.248Z,101447.78
2023-02-28T19:54:56.661Z,101450.00
2023-02-28T19:57:24.115Z,101452.16
2023-02-28T19:59:52.116Z,101441.38
2023-02-28T20:02:21.657Z,101446.91
2023-02-28T20:04:51.350Z,101440.66
2023-02-28T20:07:20.586Z,101438.09
2023-02-28T20:09:48.086Z,101439.78
2023-02-28T20:12:24.167Z,101435.78
2023-02-28T20:17:57.204Z,101436.25
2023-02-28T20:20:26.246Z,101441.34
2023-02-28T20:22:53.722Z,101444.69
2023-02-28T20:25:21.287Z,101446.47
2023-02-28T20:27:48.904Z,101448.06
2023-02-28T20:30:16.528Z,101447.50
2023-02-28T20:32:44.023Z,101460.28
2023-02-28T20:35:12.110Z,101454.78
2023-02-28T20:37:40.932Z,101465.50
2023-02-28T20:40:09.987Z,101457.41
2023-02-28T20:42:37.468Z,101464.63
2023-02-28T20:48:07.644Z,101466.44
2023-02-28T20:50:35.096Z,101467.66
2023-02-28T20:53:03.863Z,101469.66
2023-02-28T20:55:31.292Z,101470.72
2023-02-28T20:57:58.795Z,101477.06
2023-02-28T21:03:24.630Z,101470.19
2023-02-28T21:05:52.059Z,101477.06
2023-02-28T21:08:20.855Z,101474.78
2023-02-28T21:10:48.310Z,101469.47
2023-02-28T21:13:15.769Z,101474.31
2023-02-28T21:15:43.204Z,101480.88
2023-02-28T21:18:10.664Z,101477.50
2023-02-28T21:20:38.100Z,101469.69
2023-02-28T21:23:06.504Z,101471.25
2023-02-28T21:25:35.309Z,101478.16
2023-02-28T21:28:03.775Z,101471.44
2023-02-28T21:30:31.378Z,101478.53
2023-02-28T21:32:58.856Z,101475.63
2023-02-28T21:35:26.370Z,101471.28
2023-02-28T21:41:00.634Z,101472.94
2023-02-28T21:43:28.075Z,101477.25
2023-02-28T21:45:58.606Z,101473.06
2023-02-28T21:48:26.100Z,101471.13
2023-02-28T21:50:57.568Z,101465.63
2023-02-28T21:53:27.976Z,101468.69
2023-02-28T21:55:55.431Z,101468.22
2023-02-28T21:58:24.616Z,101470.25
2023-02-28T22:00:52.058Z,101470.59
2023-02-28T22:03:19.528Z,101465.84
2023-02-28T22:05:47.064Z,101473.66
2023-02-28T22:08:14.519Z,101472.88
2023-02-28T22:10:41.959Z,101472.53
2023-02-28T22:13:09.406Z,101475.91
2023-02-28T22:15:38.682Z,101474.28
2023-02-28T22:18:06.459Z,101472.34
2023-02-28T22:20:48.721Z,101467.47
2023-02-28T22:23:16.145Z,101472.84
2023-02-28T22:25:43.588Z,101476.72
2023-02-28T22:28:11.011Z,101470.44
2023-02-28T22:30:39.802Z,101467.78
2023-02-28T22:33:07.222Z,101473.19
2023-02-28T22:35:34.739Z,101463.03
2023-02-28T22:38:02.175Z,101465.47
2023-02-28T22:40:29.897Z,101466.97
2023-02-28T22:42:57.371Z,101469.38
2023-02-28T22:45:38.245Z,101472.44
2023-02-28T22:48:08.203Z,101477.16
2023-02-28T22:50:36.254Z,101485.69
2023-02-28T22:53:03.689Z,101488.28
2023-02-28T22:55:31.141Z,101487.63
2023-02-28T23:00:48.923Z,101479.72
2023-02-28T23:03:17.676Z,101490.09
2023-02-28T23:05:45.273Z,101479.38
2023-02-28T23:08:50.495Z,101476.63
2023-02-28T23:11:20.363Z,101480.22
2023-02-28T23:13:58.174Z,101482.56
2023-02-28T23:16:27.184Z,101479.22
2023-02-28T23:18:57.129Z,101477.53
2023-02-28T23:21:24.891Z,101480.84
2023-02-28T23:23:52.348Z,101487.66
2023-02-28T23:26:19.847Z,101478.41
2023-02-28T23:28:47.284Z,101471.13
2023-02-28T23:34:26.052Z,101476.56
2023-02-28T23:36:54.127Z,101473.56
2023-02-28T23:42:11.934Z,101469.44
2023-02-28T23:44:39.368Z,101475.53
2023-02-28T23:47:07.199Z,101466.84
2023-02-28T23:49:37.246Z,101478.50
2023-02-28T23:52:05.476Z,101472.91
2023-02-28T23:54:33.224Z,101470.41
2023-02-28T23:57:00.698Z,101469.75
2023-02-28T23:59:28.172Z,101468.59
